createdAt,value
2022-09-15T00:01:17.610Z,69.20
2022-09-15T00:03:45.833Z,69.30
2022-09-15T00:06:17.867Z,69.30
2022-09-15T00:08:45.965Z,69.30
2022-09-15T00:11:22.941Z,69.20
2022-09-15T00:13:53.565Z,69.10
2022-09-15T00:16:24.559Z,69.20
2022-09-15T00:18:53.111Z,69.20
2022-09-15T00:21:28.335Z,69.10
2022-09-15T00:23:56.880Z,69.00
2022-09-15T00:26:27.389Z,69.00
2022-09-15T00:28:58.070Z,69.00
2022-09-15T00:31:27.898Z,69.20
2022-09-15T00:33:58.099Z,69.00
2022-09-15T00:36:27.723Z,69.00
2022-09-15T00:38:56.706Z,69.00
2022-09-15T00:41:26.172Z,68.90
2022-09-15T00:43:57.876Z,68.90
2022-09-15T00:46:29.087Z,69.20
2022-09-15T00:49:05.003Z,69.00
2022-09-15T00:51:38.325Z,69.00
2022-09-15T00:54:11.760Z,69.10
2022-09-15T00:56:41.830Z,69.30
2022-09-15T00:59:22.543Z,69.20
2022-09-15T01:01:58.059Z,69.20
2022-09-15T01:04:26.446Z,69.10
2022-09-15T01:07:01.781Z,69.10
2022-09-15T01:09:34.473Z,69.10
2022-09-15T01:12:03.487Z,69.10
2022-09-15T01:14:33.176Z,69.10
2022-09-15T01:17:07.897Z,69.20
2022-09-15T01:20:10.618Z,69.40
2022-09-15T01:22:51.637Z,69.40
2022-09-15T01:25:35.196Z,69.40
2022-09-15T01:28:43.758Z,69.30
2022-09-15T01:31:24.478Z,69.00
2022-09-15T01:34:02.721Z,69.10
2022-09-15T01:36:38.666Z,69.10
2022-09-15T01:39:14.209Z,69.20
2022-09-15T01:41:47.910Z,69.10
2022-09-15T01:44:22.577Z,69.00
2022-09-15T01:46:56.283Z,69.10
2022-09-15T01:49:30.615Z,68.90
2022-09-15T01:51:58.684Z,69.10
2022-09-15T01:54:31.106Z,69.00
2022-09-15T01:56:59.655Z,69.10
2022-09-15T01:59:27.725Z,69.30
2022-09-15T02:02:00.940Z,69.00
2022-09-15T02:04:32.103Z,69.10
2022-09-15T02:07:06.394Z,69.30
2022-09-15T02:09:39.339Z,69.10
2022-09-15T02:12:15.184Z,69.20
2022-09-15T02:14:53.296Z,69.30
2022-09-15T02:17:23.486Z,69.30
2022-09-15T02:19:54.363Z,69.40
2022-09-15T02:22:27.096Z,69.30
2022-09-15T02:25:02.206Z,69.10
2022-09-15T02:27:35.041Z,69.70
2022-09-15T02:30:07.565Z,69.30
2022-09-15T02:32:46.687Z,69.20
2022-09-15T02:35:15.644Z,69.30
2022-09-15T02:37:45.486Z,69.10
2022-09-15T02:40:13.756Z,69.50
2022-09-15T02:42:42.529Z,69.20
2022-09-15T02:45:11.308Z,69.10
2022-09-15T02:47:40.817Z,69.00
2022-09-15T02:50:09.374Z,69.10
2022-09-15T02:52:37.422Z,69.10
2022-09-15T02:55:06.025Z,69.00
2022-09-15T02:57:34.144Z,69.10
2022-09-15T03:00:14.995Z,69.00
2022-09-15T03:02:46.504Z,69.00
2022-09-15T03:05:15.874Z,69.20
2022-09-15T03:07:44.320Z,69.10
2022-09-15T03:10:13.930Z,69.20
2022-09-15T03:12:43.826Z,69.00
2022-09-15T03:15:13.993Z,69.00
2022-09-15T03:17:44.729Z,69.00
2022-09-15T03:20:15.101Z,69.10
2022-09-15T03:22:43.895Z,69.20
2022-09-15T03:25:12.408Z,69.10
2022-09-15T03:27:40.763Z,69.10
2022-09-15T03:30:11.568Z,69.10
2022-09-15T03:32:39.686Z,69.10
2022-09-15T03:35:10.831Z,69.10
2022-09-15T03:37:38.919Z,69.00
2022-09-15T03:40:08.504Z,69.10
2022-09-15T03:42:36.655Z,69.00
2022-09-15T03:45:05.194Z,69.00
2022-09-15T03:47:33.772Z,69.00
2022-09-15T03:50:01.831Z,69.10
2022-09-15T03:52:33.109Z,69.00
2022-09-15T03:55:01.168Z,68.90
2022-09-15T03:57:29.265Z,69.00
2022-09-15T03:59:57.359Z,69.10
2022-09-15T04:02:25.527Z,68.90
2022-09-15T04:04:53.642Z,69.00
2022-09-15T04:07:21.727Z,68.90
2022-09-15T04:09:51.622Z,68.90
2022-09-15T04:12:19.760Z,69.00
2022-09-15T04:14:48.024Z,68.90
2022-09-15T04:17:16.211Z,69.00
2022-09-15T04:19:44.261Z,69.00
2022-09-15T04:22:17.037Z,68.90
2022-09-15T04:24:47.993Z,69.10
2022-09-15T04:27:18.057Z,69.10
2022-09-15T04:29:46.320Z,69.00
2022-09-15T04:32:14.442Z,69.00
2022-09-15T04:34:42.547Z,68.90
2022-09-15T04:37:10.853Z,69.10
2022-09-15T04:39:39.232Z,69.00
2022-09-15T04:42:07.836Z,69.10
2022-09-15T04:44:37.266Z,69.10
2022-09-15T04:47:05.869Z,69.00
2022-09-15T04:49:34.244Z,69.10
2022-09-15T04:52:06.612Z,69.30
2022-09-15T04:54:37.130Z,69.10
2022-09-15T04:57:05.612Z,69.20
2022-09-15T04:59:33.910Z,69.20
2022-09-15T05:02:03.689Z,69.20
2022-09-15T05:04:31.886Z,69.10
2022-09-15T05:07:00.211Z,69.20
2022-09-15T05:09:29.590Z,69.20
2022-09-15T05:11:57.842Z,69.20
2022-09-15T05:14:25.903Z,68.90
2022-09-15T05:16:53.991Z,69.30
2022-09-15T05:19:23.675Z,69.50
2022-09-15T05:21:51.740Z,69.10
2022-09-15T05:24:20.007Z,69.20
2022-09-15T05:26:48.102Z,69.50
2022-09-15T05:29:16.366Z,69.30
2022-09-15T05:31:44.489Z,69.30
2022-09-15T05:34:12.623Z,69.30
2022-09-15T05:36:42.378Z,69.30
2022-09-15T05:39:10.484Z,69.20
2022-09-15T05:41:38.558Z,69.40
2022-09-15T05:44:06.739Z,69.30
2022-09-15T05:46:35.016Z,69.20
2022-09-15T05:49:03.165Z,69.60
2022-09-15T05:51:31.276Z,69.60
2022-09-15T05:54:00.773Z,69.40
2022-09-15T05:56:28.938Z,69.30
2022-09-15T05:58:57.408Z,69.40
2022-09-15T06:01:27.289Z,69.40
2022-09-15T06:03:56.395Z,69.30
2022-09-15T06:06:25.213Z,69.10
2022-09-15T06:08:58.933Z,69.40
2022-09-15T06:11:30.245Z,69.20
2022-09-15T06:14:00.961Z,69.60
2022-09-15T06:16:32.050Z,69.60
2022-09-15T06:19:01.334Z,69.80
2022-09-15T06:21:31.281Z,70.20
2022-09-15T06:24:00.878Z,70.30
2022-09-15T06:26:31.141Z,70.50
2022-09-15T06:29:00.925Z,70.60
2022-09-15T06:31:37.895Z,70.80
2022-09-15T06:34:06.716Z,71.00
2022-09-15T06:36:34.937Z,70.90
2022-09-15T06:39:03.345Z,71.00
2022-09-15T06:41:58.434Z,70.80
2022-09-15T06:44:21.192Z,70.90
2022-09-15T06:46:49.801Z,71.00
2022-09-15T06:49:18.147Z,70.80
2022-09-15T06:51:46.455Z,70.90
2022-09-15T06:54:16.068Z,70.80
2022-09-15T06:56:45.727Z,70.80
2022-09-15T06:59:16.343Z,70.80
2022-09-15T07:01:44.805Z,70.70
2022-09-15T07:04:12.935Z,70.70
2022-09-15T07:06:41.122Z,70.60
2022-09-15T07:09:09.648Z,70.60
2022-09-15T07:11:37.784Z,70.60
2022-09-15T07:14:07.565Z,70.80
2022-09-15T07:16:35.784Z,70.70
2022-09-15T07:19:05.815Z,70.50
2022-09-15T07:21:35.533Z,70.40
2022-09-15T07:24:07.313Z,70.40
2022-09-15T07:26:35.915Z,70.30
2022-09-15T07:29:07.707Z,70.50
2022-09-15T07:31:38.665Z,70.30
2022-09-15T07:34:07.339Z,70.40
2022-09-15T07:36:36.064Z,70.60
2022-09-15T07:39:05.759Z,70.30
2022-09-15T07:41:34.265Z,70.20
2022-09-15T07:44:03.008Z,70.30
2022-09-15T07:46:33.381Z,70.30
2022-09-15T07:49:03.089Z,70.40
2022-09-15T07:51:31.629Z,70.10
2022-09-15T07:54:00.599Z,70.20
2022-09-15T07:56:28.848Z,70.20
2022-09-15T07:58:57.740Z,70.20
2022-09-15T08:01:25.970Z,70.10
2022-09-15T08:03:56.045Z,70.30
2022-09-15T08:06:26.567Z,70.20
2022-09-15T08:09:00.090Z,70.30
2022-09-15T08:11:29.473Z,70.10
2022-09-15T08:13:57.745Z,70.10
2022-09-15T08:16:26.218Z,69.80
2022-09-15T08:18:56.839Z,69.70
2022-09-15T08:21:25.012Z,69.90
2022-09-15T08:23:54.094Z,69.90
2022-09-15T08:26:36.275Z,69.70
2022-09-15T08:29:04.379Z,69.80
2022-09-15T08:31:32.536Z,69.70
2022-09-15T08:34:06.386Z,69.60
2022-09-15T08:36:34.921Z,69.70
2022-09-15T08:39:04.415Z,69.60
2022-09-15T08:41:34.857Z,69.50
2022-09-15T08:44:09.265Z,69.60
2022-09-15T08:46:44.198Z,69.50
2022-09-15T08:49:30.553Z,69.70
2022-09-15T08:52:11.172Z,69.70
2022-09-15T08:54:40.064Z,69.60
2022-09-15T08:57:15.604Z,69.50
2022-09-15T08:59:44.470Z,69.50
2022-09-15T09:02:40.429Z,69.40
2022-09-15T09:05:22.823Z,69.50
2022-09-15T09:08:29.938Z,69.60
2022-09-15T09:11:03.640Z,69.40
2022-09-15T09:13:38.720Z,69.40
2022-09-15T09:16:35.047Z,69.40
2022-09-15T09:19:22.902Z,69.10
2022-09-15T09:21:58.342Z,69.10
2022-09-15T09:24:35.754Z,69.10
2022-09-15T09:27:05.144Z,69.10
2022-09-15T09:29:37.754Z,69.20
2022-09-15T09:32:21.375Z,69.10
2022-09-15T09:34:59.913Z,69.30
2022-09-15T09:37:29.851Z,69.10
2022-09-15T09:39:57.944Z,69.20
2022-09-15T09:42:30.113Z,69.30
2022-09-15T09:44:58.366Z,69.10
2022-09-15T09:47:29.558Z,69.20
2022-09-15T09:49:58.058Z,69.20
2022-09-15T09:52:36.186Z,69.10
2022-09-15T09:55:17.456Z,69.20
2022-09-15T09:57:45.495Z,69.10
2022-09-15T10:00:32.706Z,69.00
2022-09-15T10:03:12.153Z,69.20
2022-09-15T10:05:40.238Z,69.10
2022-09-15T10:08:16.862Z,69.10
2022-09-15T10:10:52.460Z,68.90
2022-09-15T10:13:21.082Z,68.80
2022-09-15T10:15:55.609Z,68.80
2022-09-15T10:18:30.037Z,68.60
2022-09-15T10:20:58.653Z,68.60
2022-09-15T10:23:29.794Z,68.70
2022-09-15T10:26:37.640Z,68.70
2022-09-15T10:29:13.159Z,68.70
2022-09-15T10:31:47.490Z,68.80
2022-09-15T10:34:27.702Z,68.70
2022-09-15T10:37:03.984Z,68.70
2022-09-15T10:39:41.857Z,68.80
2022-09-15T10:42:18.382Z,68.80
2022-09-15T10:44:53.428Z,68.70
2022-09-15T10:47:32.374Z,68.80
2022-09-15T10:50:14.662Z,68.60
2022-09-15T10:52:58.853Z,69.00
2022-09-15T10:55:52.805Z,68.80
2022-09-15T10:59:06.520Z,68.70
2022-09-15T11:01:52.220Z,68.90
2022-09-15T11:04:45.368Z,69.00
2022-09-15T11:07:23.491Z,69.20
2022-09-15T11:09:57.225Z,69.10
2022-09-15T11:12:39.139Z,69.20
2022-09-15T11:15:21.367Z,69.10
2022-09-15T11:18:06.383Z,69.50
2022-09-15T11:21:01.807Z,69.20
2022-09-15T11:23:34.792Z,69.50
2022-09-15T11:26:07.119Z,69.50
2022-09-15T11:28:42.849Z,69.00
2022-09-15T11:31:29.011Z,69.10
2022-09-15T11:34:02.802Z,69.10
2022-09-15T11:36:35.963Z,69.20
2022-09-15T11:39:11.701Z,69.30
2022-09-15T11:41:45.118Z,69.50
2022-09-15T11:44:22.185Z,69.80
2022-09-15T11:47:20.828Z,69.50
2022-09-15T11:49:51.489Z,69.40
2022-09-15T11:52:47.912Z,68.70
2022-09-15T11:55:24.300Z,68.20
2022-09-15T11:57:59.252Z,67.20
2022-09-15T12:00:28.745Z,66.80
2022-09-15T12:03:09.834Z,66.20
2022-09-15T12:05:43.144Z,65.50
2022-09-15T12:08:18.194Z,65.30
2022-09-15T12:10:52.223Z,65.30
2022-09-15T12:13:22.840Z,65.70
2022-09-15T12:15:53.509Z,66.20
2022-09-15T12:18:40.782Z,66.90
2022-09-15T12:21:36.612Z,67.20
2022-09-15T12:24:13.417Z,66.90
2022-09-15T12:26:50.837Z,67.50
2022-09-15T12:29:41.839Z,67.40
2022-09-15T12:32:26.683Z,67.50
2022-09-15T12:35:01.564Z,67.70
2022-09-15T12:37:44.058Z,67.70
2022-09-15T12:40:34.927Z,67.70
2022-09-15T12:43:04.788Z,67.90
2022-09-15T12:45:36.355Z,68.00
2022-09-15T12:48:12.294Z,68.00
2022-09-15T12:50:43.856Z,68.70
2022-09-15T12:53:19.820Z,68.70
2022-09-15T12:55:51.959Z,68.90
2022-09-15T12:58:26.627Z,69.40
2022-09-15T13:01:39.786Z,69.40
2022-09-15T13:04:45.666Z,69.20
2022-09-15T13:07:35.369Z,69.20
2022-09-15T13:10:28.571Z,69.50
2022-09-15T13:13:08.893Z,69.30
2022-09-15T13:15:42.023Z,69.50
2022-09-15T13:18:13.210Z,69.70
2022-09-15T13:20:50.219Z,69.70
2022-09-15T13:23:23.562Z,69.80
2022-09-15T13:25:57.225Z,69.80
2022-09-15T13:28:27.263Z,69.80
2022-09-15T13:31:35.712Z,69.80
2022-09-15T13:38:12.258Z,69.80
2022-09-15T13:41:16.441Z,69.80
2022-09-15T13:44:11.105Z,69.60
2022-09-15T13:47:16.445Z,69.50
2022-09-15T13:49:52.590Z,69.80
2022-09-15T13:52:38.398Z,69.70
2022-09-15T13:55:16.618Z,69.60
2022-09-15T14:00:44.556Z,69.70
2022-09-15T14:03:17.424Z,69.50
2022-09-15T14:05:46.588Z,69.40
2022-09-15T14:08:19.734Z,69.50
2022-09-15T14:10:54.492Z,69.40
2022-09-15T14:13:25.096Z,69.40
2022-09-15T14:16:01.764Z,69.40
2022-09-15T14:18:30.681Z,69.40
2022-09-15T14:21:00.786Z,69.40
2022-09-15T14:23:30.983Z,69.40
2022-09-15T14:26:01.345Z,69.20
2022-09-15T14:28:33.206Z,69.20
2022-09-15T14:31:02.729Z,69.10
2022-09-15T14:33:38.064Z,69.00
2022-09-15T14:37:12.861Z,69.00
2022-09-15T14:39:43.227Z,69.00
2022-09-15T14:42:21.298Z,69.10
2022-09-15T14:47:41.784Z,69.10
2022-09-15T14:50:15.564Z,69.10
2022-09-15T14:52:46.152Z,69.20
2022-09-15T14:55:18.937Z,69.20
2022-09-15T14:57:52.519Z,69.10
2022-09-15T15:00:24.194Z,69.10
2022-09-15T15:03:04.148Z,69.10
2022-09-15T15:05:36.468Z,69.10
2022-09-15T15:08:07.904Z,69.10
2022-09-15T15:10:38.302Z,69.10
2022-09-15T15:13:08.374Z,69.20
2022-09-15T15:15:39.046Z,69.10
2022-09-15T15:18:31.614Z,69.20
2022-09-15T15:21:00.249Z,69.20
2022-09-15T15:23:28.942Z,69.00
2022-09-15T15:30:29.670Z,69.20
2022-09-15T15:33:00.032Z,69.40
2022-09-15T15:35:29.291Z,68.70
2022-09-15T15:38:06.356Z,66.50
2022-09-15T15:40:36.346Z,69.10
2022-09-15T15:43:08.386Z,68.90
2022-09-15T15:45:48.415Z,69.40
2022-09-15T15:48:16.596Z,69.50
2022-09-15T15:50:44.670Z,68.80
2022-09-15T15:53:12.748Z,69.30
2022-09-15T15:55:43.144Z,69.40
2022-09-15T15:58:13.590Z,69.30
2022-09-15T16:00:45.143Z,65.60
2022-09-15T16:07:19.115Z,68.30
2022-09-15T16:10:19.520Z,68.90
2022-09-15T16:12:48.066Z,69.00
2022-09-15T16:15:20.599Z,67.70
2022-09-15T16:17:49.037Z,68.20
2022-09-15T16:20:19.689Z,68.50
2022-09-15T16:22:47.986Z,68.40
2022-09-15T16:25:19.273Z,68.40
2022-09-15T16:27:47.327Z,67.90
2022-09-15T16:30:17.012Z,66.00
2022-09-15T16:32:45.120Z,67.50
2022-09-15T16:35:22.499Z,68.10
2022-09-15T16:37:50.765Z,68.30
2022-09-15T16:40:18.903Z,68.60
2022-09-15T16:42:48.641Z,68.70
2022-09-15T16:45:24.244Z,68.40
2022-09-15T16:47:52.351Z,68.20
2022-09-15T16:50:20.464Z,67.90
2022-09-15T16:52:48.619Z,67.80
2022-09-15T16:55:35.827Z,67.50
2022-09-15T16:58:04.651Z,65.70
2022-09-15T17:00:36.679Z,66.90
2022-09-15T17:03:05.346Z,67.10
2022-09-15T17:05:37.220Z,67.40
2022-09-15T17:08:05.955Z,67.40
2022-09-15T17:10:34.602Z,64.10
2022-09-15T17:13:02.823Z,65.90
2022-09-15T17:15:35.483Z,66.60
2022-09-15T17:18:04.295Z,66.20
2022-09-15T17:20:37.187Z,67.10
2022-09-15T17:23:18.993Z,64.30
2022-09-15T17:25:52.668Z,66.00
2022-09-15T17:28:22.685Z,66.10
2022-09-15T17:30:54.281Z,66.00
2022-09-15T17:33:23.657Z,66.90
2022-09-15T17:35:51.986Z,69.80
2022-09-15T17:38:23.316Z,68.70
2022-09-15T17:40:52.848Z,69.20
2022-09-15T17:43:22.938Z,67.50
2022-09-15T17:45:52.862Z,69.30
2022-09-15T17:48:21.103Z,69.80
2022-09-15T17:50:49.675Z,66.60
2022-09-15T17:53:21.184Z,68.60
2022-09-15T17:55:50.177Z,68.90
2022-09-15T17:58:18.603Z,68.90
2022-09-15T18:00:47.289Z,68.60
2022-09-15T18:03:27.745Z,66.70
2022-09-15T18:05:58.305Z,67.40
2022-09-15T18:08:26.963Z,67.30
2022-09-15T18:10:55.507Z,67.80
2022-09-15T18:13:26.888Z,68.10
2022-09-15T18:15:55.200Z,67.90
2022-09-15T18:18:26.866Z,67.90
2022-09-15T18:20:57.891Z,68.00
2022-09-15T18:23:29.431Z,67.90
2022-09-15T18:25:58.093Z,67.80
2022-09-15T18:28:26.337Z,67.90
2022-09-15T18:30:54.572Z,67.80
2022-09-15T18:33:25.483Z,67.70
2022-09-15T18:35:55.436Z,67.70
2022-09-15T18:38:24.502Z,67.80
2022-09-15T18:40:55.338Z,67.60
2022-09-15T18:43:25.083Z,67.60
2022-09-15T18:45:53.331Z,67.60
2022-09-15T18:48:21.517Z,67.60
2022-09-15T18:50:51.303Z,67.50
2022-09-15T18:53:19.415Z,67.60
2022-09-15T18:55:47.511Z,67.50
2022-09-15T18:58:15.814Z,67.30
2022-09-15T19:00:46.774Z,67.40
2022-09-15T19:03:15.087Z,67.50
2022-09-15T19:05:43.401Z,67.40
2022-09-15T19:08:12.948Z,67.40
2022-09-15T19:10:43.825Z,67.40
2022-09-15T19:13:14.160Z,67.50
2022-09-15T19:15:43.912Z,67.50
2022-09-15T19:18:12.245Z,67.40
2022-09-15T19:20:41.809Z,67.40
2022-09-15T19:23:10.548Z,67.40
2022-09-15T19:25:43.111Z,67.40
2022-09-15T19:28:11.308Z,67.30
2022-09-15T19:30:39.459Z,67.30
2022-09-15T19:33:07.583Z,67.20
2022-09-15T19:35:36.913Z,67.20
2022-09-15T19:38:05.080Z,66.80
2022-09-15T19:40:33.259Z,66.80
2022-09-15T19:43:02.832Z,66.70
2022-09-15T19:45:30.903Z,67.10
2022-09-15T19:48:00.086Z,67.10
2022-09-15T19:50:28.169Z,67.10
2022-09-15T19:52:59.411Z,67.20
2022-09-15T19:55:28.765Z,66.80
2022-09-15T19:57:56.820Z,66.80
2022-09-15T20:00:27.598Z,67.00
2022-09-15T20:02:55.704Z,67.10
2022-09-15T20:05:23.806Z,67.10
2022-09-15T20:07:51.924Z,67.20
2022-09-15T20:10:20.041Z,67.20
2022-09-15T20:12:48.117Z,67.10
2022-09-15T20:15:16.351Z,67.10
2022-09-15T20:17:45.818Z,66.90
2022-09-15T20:20:13.906Z,66.70
2022-09-15T20:22:42.028Z,66.80
2022-09-15T20:25:10.203Z,66.90
2022-09-15T20:27:38.356Z,67.00
2022-09-15T20:30:08.360Z,67.10
2022-09-15T20:32:36.468Z,66.60
2022-09-15T20:35:06.603Z,66.70
2022-09-15T20:37:37.551Z,66.90
2022-09-15T20:40:12.341Z,66.00
2022-09-15T20:42:40.435Z,64.00
2022-09-15T20:45:09.647Z,65.40
2022-09-15T20:47:37.703Z,67.10
2022-09-15T20:50:08.422Z,67.20
2022-09-15T20:52:38.557Z,65.60
2022-09-15T20:55:07.450Z,66.40
2022-09-15T20:57:35.497Z,67.10
2022-09-15T21:00:05.992Z,67.10
2022-09-15T21:02:34.246Z,67.10
2022-09-15T21:05:02.412Z,67.00
2022-09-15T21:07:34.436Z,67.10
2022-09-15T21:10:02.976Z,67.10
2022-09-15T21:12:31.063Z,67.20
2022-09-15T21:14:59.158Z,67.20
2022-09-15T21:17:28.929Z,67.20
2022-09-15T21:19:57.181Z,67.20
2022-09-15T21:22:25.517Z,67.30
2022-09-15T21:24:54.982Z,67.30
2022-09-15T21:27:30.532Z,67.30
2022-09-15T21:29:59.165Z,67.30
2022-09-15T21:32:27.220Z,67.40
2022-09-15T21:34:55.997Z,67.40
2022-09-15T21:37:26.233Z,67.40
2022-09-15T21:39:55.915Z,67.40
2022-09-15T21:42:25.065Z,67.40
2022-09-15T21:44:54.420Z,67.40
2022-09-15T21:47:22.540Z,67.40
2022-09-15T21:49:51.704Z,67.50
2022-09-15T21:52:19.800Z,67.50
2022-09-15T21:54:47.878Z,67.50
2022-09-15T21:57:17.366Z,67.50
2022-09-15T21:59:45.495Z,67.50
2022-09-15T22:02:13.619Z,67.50
2022-09-15T22:04:41.732Z,67.60
2022-09-15T22:07:09.815Z,67.60
2022-09-15T22:09:38.718Z,67.60
2022-09-15T22:12:07.285Z,67.60
2022-09-15T22:14:36.812Z,67.60
2022-09-15T22:17:04.929Z,67.60
2022-09-15T22:19:33.024Z,67.60
2022-09-15T22:22:01.302Z,67.60
2022-09-15T22:24:29.429Z,67.60
2022-09-15T22:26:57.526Z,67.60
2022-09-15T22:29:26.034Z,67.60
2022-09-15T22:31:55.553Z,67.60
2022-09-15T22:34:23.680Z,67.70
2022-09-15T22:36:51.796Z,67.60
2022-09-15T22:39:19.910Z,67.70
2022-09-15T22:41:48.118Z,67.70
2022-09-15T22:44:21.251Z,67.70
2022-09-15T22:46:51.373Z,67.70
2022-09-15T22:49:20.888Z,67.70
2022-09-15T22:51:48.991Z,67.70
2022-09-15T22:54:17.279Z,67.70
2022-09-15T22:56:46.898Z,67.70
2022-09-15T22:59:15.011Z,67.70
2022-09-15T23:01:43.577Z,67.70
2022-09-15T23:04:11.799Z,67.70
2022-09-15T23:06:42.527Z,67.70
2022-09-15T23:09:12.154Z,67.70
2022-09-15T23:11:41.195Z,67.70
2022-09-15T23:14:14.366Z,67.70
2022-09-15T23:16:42.855Z,67.70
2022-09-15T23:19:13.341Z,67.70
2022-09-15T23:21:42.919Z,67.70
2022-09-15T23:24:12.407Z,67.70
2022-09-15T23:26:40.603Z,67.70
2022-09-15T23:29:08.750Z,67.70
2022-09-15T23:31:36.931Z,67.70
2022-09-15T23:34:05.153Z,67.70
2022-09-15T23:36:33.227Z,67.70
2022-09-15T23:39:02.693Z,67.70
2022-09-15T23:41:30.815Z,67.70
2022-09-15T23:43:59.918Z,67.70
2022-09-15T23:46:28.103Z,67.70
2022-09-15T23:48:56.290Z,67.70
2022-09-15T23:51:24.733Z,67.70
2022-09-15T23:53:53.086Z,67.80
2022-09-15T23:56:22.603Z,67.70
2022-09-15T23:58:51.019Z,67.80
